Time;durP1;ratioP1;P1;durP2;ratioP2;P2;SDS_P1;SDS_P2;PMS_P1;PMS_P2;Temp;Humidity;BMP_temperature;BMP_pressure;BME280_temperature;BME280_humidity;BME280_pressure;Samples;Min_cycle;Max_cycle;Signal;HPM_P1;HPM_P2
2022/08/03 00:01:35;;;;;;;;;;;;;;;;;;4998104;28;20337;-23
2022/08/03 00:04:01;;;;;;;;;;;;;;;;;;4997978;28;19910;-23
2022/08/03 00:06:27;;;;;;;;;;;;;;;;;;4997938;28;19945;-23
2022/08/03 00:08:53;;;;;;;;;;;;;;;;;;4997844;28;19910;-23
2022/08/03 00:11:19;;;;;;;;;;;;;;;;;;4997465;28;19914;-23
2022/08/03 00:13:45;;;;;;;;;;;;;;;;;;4997773;28;20320;-23
2022/08/03 00:16:12;;;;;;;;;;;;;;;;;;4998023;28;19914;-23
2022/08/03 00:18:38;;;;;;;;;;;;;;;;;;4997424;28;19929;-23
2022/08/03 00:21:04;;;;;;;;;;;;;;;;;;4997551;28;19981;-23
2022/08/03 00:23:29;;;;;;;;;;;;;;;;;;4997553;28;19910;-23
2022/08/03 00:25:55;;;;;;;;;;;;;;;;;;4997509;28;19917;-23
2022/08/03 00:28:21;;;;;;;;;;;;;;;;;;4997694;28;19910;-23
2022/08/03 00:30:47;;;;;;;;;;;;;;;;;;4997377;28;20436;-23
2022/08/03 00:33:13;;;;;;;;;;;;;;;;;;4997388;28;19921;-23
2022/08/03 00:35:39;;;;;;;;;;;;;;;;;;4997342;28;19914;-23
2022/08/03 00:38:05;;;;;;;;;;;;;;;;;;4997284;28;19917;-23
2022/08/03 00:40:31;;;;;;;;;;;;;;;;;;4997129;28;19993;-23
2022/08/03 00:42:57;;;;;;;;;;;;;;;;;;4997224;28;20024;-23
2022/08/03 00:45:23;;;;;;;;;;;;;;;;;;4997184;28;19921;-23
2022/08/03 00:47:49;;;;;;;;;;;;;;;;;;4997196;28;19921;-23
2022/08/03 00:50:15;;;;;;;;;;;;;;;;;;4997023;28;19918;-23
2022/08/03 00:52:41;;;;;;;;;;;;;;;;;;4996999;28;19972;-23
2022/08/03 00:55:07;;;;;;;;;;;;;;;;;;4996981;28;19918;-23
2022/08/03 00:57:33;;;;;;;;;;;;;;;;;;4996831;28;19976;-23
2022/08/03 00:59:59;;;;;;;;;;;;;;;;;;4997083;28;19914;-23
2022/08/03 01:02:25;;;;;;;;;;;;;;;;;;4996791;28;19914;-23
2022/08/03 01:04:51;;;;;;;;;;;;;;;;;;4996796;28;19914;-23
2022/08/03 01:07:17;;;;;;;;;;;;;;;;;;4996904;28;20355;-23
2022/08/03 01:09:43;;;;;;;;;;;;;;;;;;4995721;28;19914;-23
2022/08/03 01:12:09;;;;;;;;;;;;;;;;;;4996632;28;19936;-23
2022/08/03 01:14:35;;;;;;;;;;;;;;;;;;4996544;28;20015;-23
2022/08/03 01:17:01;;;;;;;;;;;;;;;;;;4996478;28;19921;-23
2022/08/03 01:19:27;;;;;;;;;;;;;;;;;;4996344;28;19926;-23
2022/08/03 01:21:53;;;;;;;;;;;;;;;;;;4995716;28;20367;-24
2022/08/03 01:24:19;;;;;;;;;;;;;;;;;;4996683;28;19922;-23
2022/08/03 01:26:45;;;;;;;;;;;;;;;;;;4996345;28;19980;-23
2022/08/03 01:29:11;;;;;;;;;;;;;;;;;;4996358;28;20242;-23
2022/08/03 01:31:37;;;;;;;;;;;;;;;;;;4995317;28;19921;-23
2022/08/03 01:34:03;;;;;;;;;;;;;;;;;;4996235;28;20248;-23
2022/08/03 01:36:29;;;;;;;;;;;;;;;;;;4996440;28;19910;-23
2022/08/03 01:38:55;;;;;;;;;;;;;;;;;;4995045;28;19940;-23
2022/08/03 01:41:21;;;;;;;;;;;;;;;;;;4996008;28;19917;-23
2022/08/03 01:43:48;;;;;;;;;;;;;;;;;;4996350;28;19918;-23
2022/08/03 01:46:14;;;;;;;;;;;;;;;;;;4996037;28;19914;-23
2022/08/03 01:48:40;;;;;;;;;;;;;;;;;;4995972;28;20045;-23
2022/08/03 01:51:06;;;;;;;;;;;;;;;;;;4995962;28;19913;-23
2022/08/03 01:53:32;;;;;;;;;;;;;;;;;;4995934;28;19918;-23
2022/08/03 01:55:58;;;;;;;;;;;;;;;;;;4996605;28;19913;-23
2022/08/03 01:58:24;;;;;;;;;;;;;;;;;;4995776;28;19939;-23
2022/08/03 02:00:50;;;;;;;;;;;;;;;;;;4996547;28;20281;-23
2022/08/03 02:03:16;;;;;;;;;;;;;;;;;;4995802;28;20308;-23
2022/08/03 02:05:42;;;;;;;;;;;;;;;;;;4995965;28;20005;-23
2022/08/03 02:08:08;;;;;;;;;;;;;;;;;;4995658;28;20304;-23
2022/08/03 02:10:34;;;;;;;;;;;;;;;;;;4995632;28;19926;-23
2022/08/03 02:13:00;;;;;;;;;;;;;;;;;;4995907;28;19956;-23
2022/08/03 02:15:26;;;;;;;;;;;;;;;;;;4995567;28;20234;-23
2022/08/03 02:17:52;;;;;;;;;;;;;;;;;;4994345;28;19925;-23
2022/08/03 02:20:18;;;;;;;;;;;;;;;;;;4995797;28;19929;-23
2022/08/03 02:22:44;;;;;;;;;;;;;;;;;;4995699;28;20012;-23
2022/08/03 02:25:10;;;;;;;;;;;;;;;;;;4995462;28;19922;-23
2022/08/03 02:27:36;;;;;;;;;;;;;;;;;;4994374;28;19914;-23
2022/08/03 02:30:02;;;;;;;;;;;;;;;;;;4995433;28;20005;-23
2022/08/03 02:32:29;;;;;;;;;;;;;;;;;;4995609;28;19910;-23
2022/08/03 02:34:55;;;;;;;;;;;;;;;;;;4995234;28;19914;-23
2022/08/03 02:37:21;;;;;;;;;;;;;;;;;;4994345;28;19968;-23
2022/08/03 02:39:47;;;;;;;;;;;;;;;;;;4995467;28;20368;-23
2022/08/03 02:42:13;;;;;;;;;;;;;;;;;;4995280;28;19920;-23
2022/08/03 02:44:39;;;;;;;;;;;;;;;;;;4995253;28;20401;-25
2022/08/03 02:47:05;;;;;;;;;;;;;;;;;;4995442;28;19960;-23
2022/08/03 02:49:31;;;;;;;;;;;;;;;;;;4995186;28;19969;-23
2022/08/03 02:51:56;;;;;;;;;;;;;;;;;;4995405;28;19976;-23
2022/08/03 02:54:23;;;;;;;;;;;;;;;;;;4995092;28;19924;-23
2022/08/03 02:56:49;;;;;;;;;;;;;;;;;;4995064;28;19949;-23
2022/08/03 02:59:14;;;;;;;;;;;;;;;;;;4995092;28;20415;-23
2022/08/03 03:01:40;;;;;;;;;;;;;;;;;;4995077;28;20000;-23
2022/08/03 03:04:06;;;;;;;;;;;;;;;;;;4995107;28;20216;-23
2022/08/03 03:06:32;;;;;;;;;;;;;;;;;;4995071;28;19909;-23
2022/08/03 03:08:58;;;;;;;;;;;;;;;;;;4995013;28;19914;-23
2022/08/03 03:11:24;;;;;;;;;;;;;;;;;;4995091;28;19917;-23
2022/08/03 03:13:50;;;;;;;;;;;;;;;;;;4995032;28;20005;-23
2022/08/03 03:16:16;;;;;;;;;;;;;;;;;;4995015;28;19945;-23
2022/08/03 03:18:42;;;;;;;;;;;;;;;;;;4994885;28;19922;-23
2022/08/03 03:21:08;;;;;;;;;;;;;;;;;;4994898;28;20260;-23
2022/08/03 03:23:34;;;;;;;;;;;;;;;;;;4994962;28;19967;-23
2022/08/03 03:26:01;;;;;;;;;;;;;;;;;;4995021;28;19910;-23
2022/08/03 03:28:27;;;;;;;;;;;;;;;;;;4994968;28;20324;-23
2022/08/03 03:30:53;;;;;;;;;;;;;;;;;;4995151;28;19921;-23
2022/08/03 03:33:19;;;;;;;;;;;;;;;;;;4994863;28;19918;-23
2022/08/03 03:35:45;;;;;;;;;;;;;;;;;;4995117;28;19968;-23
2022/08/03 03:38:11;;;;;;;;;;;;;;;;;;4994775;28;19913;-23
2022/08/03 03:40:37;;;;;;;;;;;;;;;;;;4994715;28;19925;-23
2022/08/03 03:43:03;;;;;;;;;;;;;;;;;;4994933;28;20364;-23
2022/08/03 03:45:29;;;;;;;;;;;;;;;;;;4995507;28;20396;-23
2022/08/03 03:47:55;;;;;;;;;;;;;;;;;;4998188;28;19910;-23
2022/08/03 03:50:21;;;;;;;;;;;;;;;;;;4998120;28;20008;-23
2022/08/03 03:52:47;;;;;;;;;;;;;;;;;;4998395;28;19918;-23
2022/08/03 03:55:14;;;;;;;;;;;;;;;;;;4998872;28;19913;-24
2022/08/03 03:57:41;;;;;;;;;;;;;;;;;;4999677;28;20348;-23
2022/08/03 04:00:10;;;;;;;;;;;;;;;;;;4999214;28;19925;-23
2022/08/03 04:02:37;;;;;;;;;;;;;;;;;;4998569;28;19929;-24
2022/08/03 04:13:21;;;;;;;;;;;;;;;;;;5000235;28;20264;-24
2022/08/03 04:15:47;;;;;;;;;;;;;;;;;;4998886;28;19920;-24
2022/08/03 04:18:14;;;;;;;;;;;;;;;;;;4999810;28;19929;-24
2022/08/03 04:20:42;;;;;;;;;;;;;;;;;;5000028;28;20340;-24
2022/08/03 04:23:09;;;;;;;;;;;;;;;;;;4999458;28;19952;-24
2022/08/03 04:25:37;;;;;;;;;;;;;;;;;;4999652;28;19920;-24
2022/08/03 04:28:04;;;;;;;;;;;;;;;;;;4998462;28;19941;-24
2022/08/03 04:30:31;;;;;;;;;;;;;;;;;;4999412;28;19949;-24
2022/08/03 04:32:58;;;;;;;;;;;;;;;;;;4999841;28;19914;-24
2022/08/03 04:35:26;;;;;;;;;;;;;;;;;;4998984;28;19950;-24
2022/08/03 04:37:53;;;;;;;;;;;;;;;;;;4999835;28;19913;-24
2022/08/03 04:40:21;;;;;;;;;;;;;;;;;;4998288;28;19909;-24
2022/08/03 04:42:48;;;;;;;;;;;;;;;;;;4998270;28;19918;-23
2022/08/03 04:45:16;;;;;;;;;;;;;;;;;;4999429;28;19930;-23
2022/08/03 04:47:43;;;;;;;;;;;;;;;;;;4999284;28;19914;-23
2022/08/03 04:50:10;;;;;;;;;;;;;;;;;;4999292;28;19921;-23
2022/08/03 04:52:38;;;;;;;;;;;;;;;;;;4997827;28;19910;-23
2022/08/03 04:55:06;;;;;;;;;;;;;;;;;;4998557;28;19917;-23
2022/08/03 04:57:33;;;;;;;;;;;;;;;;;;4998092;28;19960;-23
2022/08/03 04:59:59;;;;;;;;;;;;;;;;;;4998694;28;19924;-23
2022/08/03 05:02:27;;;;;;;;;;;;;;;;;;4998691;28;19925;-23
2022/08/03 05:04:55;;;;;;;;;;;;;;;;;;4998227;28;19921;-23
2022/08/03 05:07:22;;;;;;;;;;;;;;;;;;4997742;28;20038;-23
2022/08/03 05:09:49;;;;;;;;;;;;;;;;;;4998994;28;20256;-23
2022/08/03 05:12:17;;;;;;;;;;;;;;;;;;4999700;28;19944;-23
2022/08/03 05:14:45;;;;;;;;;;;;;;;;;;4998912;28;19925;-23
2022/08/03 05:17:12;;;;;;;;;;;;;;;;;;4998635;28;19961;-23
2022/08/03 05:19:39;;;;;;;;;;;;;;;;;;4997833;28;19928;-23
2022/08/03 05:22:06;;;;;;;;;;;;;;;;;;4998413;28;19918;-23
2022/08/03 05:24:35;;;;;;;;;;;;;;;;;;4998214;28;19922;-23
2022/08/03 05:27:04;;;;;;;;;;;;;;;;;;4997550;28;19921;-23
2022/08/03 05:29:34;;;;;;;;;;;;;;;;;;4997977;28;19914;-23
2022/08/03 05:32:01;;;;;;;;;;;;;;;;;;4998860;28;19910;-23
2022/08/03 05:34:28;;;;;;;;;;;;;;;;;;4998923;28;19983;-23
2022/08/03 05:36:56;;;;;;;;;;;;;;;;;;4998281;28;19945;-23
2022/08/03 05:39:22;;;;;;;;;;;;;;;;;;4998633;28;20358;-23
2022/08/03 05:41:51;;;;;;;;;;;;;;;;;;4998187;28;19977;-23
2022/08/03 05:44:19;;;;;;;;;;;;;;;;;;4998732;28;19925;-23
2022/08/03 05:46:47;;;;;;;;;;;;;;;;;;4999505;28;19981;-23
2022/08/03 05:49:14;;;;;;;;;;;;;;;;;;4997883;28;19948;-23
2022/08/03 05:51:41;;;;;;;;;;;;;;;;;;4998527;28;19920;-23
2022/08/03 05:54:15;;;;;;;;;;;;;;;;;;4997911;28;19918;-23
2022/08/03 05:56:49;;;;;;;;;;;;;;;;;;4998012;28;19914;-24
2022/08/03 05:59:17;;;;;;;;;;;;;;;;;;4997333;28;19914;-23
2022/08/03 06:01:45;;;;;;;;;;;;;;;;;;4998402;28;19928;-24
2022/08/03 06:04:12;;;;;;;;;;;;;;;;;;4998164;28;20012;-24
2022/08/03 06:06:40;;;;;;;;;;;;;;;;;;4997966;28;20257;-24
2022/08/03 06:09:09;;;;;;;;;;;;;;;;;;4998422;28;19969;-24
2022/08/03 06:11:36;;;;;;;;;;;;;;;;;;4996798;28;19913;-24
2022/08/03 06:14:06;;;;;;;;;;;;;;;;;;4997325;28;19909;-24
2022/08/03 06:16:34;;;;;;;;;;;;;;;;;;4996530;28;19913;-24
2022/08/03 06:21:53;;;;;;;;;;;;;;;;;;4997811;28;19929;-23
2022/08/03 06:24:20;;;;;;;;;;;;;;;;;;4997746;28;19925;-23
2022/08/03 06:26:53;;;;;;;;;;;;;;;;;;4997448;28;19936;-23
2022/08/03 06:29:22;;;;;;;;;;;;;;;;;;4997777;28;19921;-23
2022/08/03 06:31:50;;;;;;;;;;;;;;;;;;4996736;28;20033;-23
2022/08/03 06:34:20;;;;;;;;;;;;;;;;;;4997072;28;19925;-23
2022/08/03 06:36:49;;;;;;;;;;;;;;;;;;4996619;28;19914;-23
2022/08/03 06:39:24;;;;;;;;;;;;;;;;;;4998566;28;19996;-23
2022/08/03 06:41:56;;;;;;;;;;;;;;;;;;4999123;28;19925;-24
2022/08/03 06:44:23;;;;;;;;;;;;;;;;;;4998259;28;19914;-24
2022/08/03 06:46:51;;;;;;;;;;;;;;;;;;4999618;28;19914;-28
2022/08/03 06:49:33;;;;;;;;;;;;;;;;;;5000749;28;19945;-24
2022/08/03 06:54:54;;;;;;;;;;;;;;;;;;4998822;28;19980;-24
2022/08/03 06:57:31;;;;;;;;;;;;;;;;;;4998812;28;20001;-24
2022/08/03 07:02:52;;;;;;;;;;;;;;;;;;4998197;28;19972;-24
2022/08/03 07:05:20;;;;;;;;;;;;;;;;;;4996226;28;19914;-24
2022/08/03 07:10:42;;;;;;;;;;;;;;;;;;4998444;28;19960;-24
2022/08/03 07:13:11;;;;;;;;;;;;;;;;;;4998314;28;19980;-24
2022/08/03 07:15:40;;;;;;;;;;;;;;;;;;4996807;28;19945;-23
2022/08/03 07:18:07;;;;;;;;;;;;;;;;;;4997141;28;19914;-23
2022/08/03 07:20:36;;;;;;;;;;;;;;;;;;4997067;28;19925;-24
2022/08/03 07:23:06;;;;;;;;;;;;;;;;;;5002678;28;19918;-23
2022/08/03 07:25:45;;;;;;;;;;;;;;;;;;5000548;28;19969;-23
2022/08/03 07:28:15;;;;;;;;;;;;;;;;;;5000985;28;19914;-24
2022/08/03 07:33:31;;;;;;;;;;;;;;;;;;5002504;28;19921;-23
2022/08/03 07:35:59;;;;;;;;;;;;;;;;;;5002479;28;19925;-24
2022/08/03 07:38:36;;;;;;;;;;;;;;;;;;5002485;28;19913;-24
2022/08/03 07:41:05;;;;;;;;;;;;;;;;;;5000960;28;19925;-24
2022/08/03 07:43:37;;;;;;;;;;;;;;;;;;5002532;28;19932;-24
2022/08/03 07:46:15;;;;;;;;;;;;;;;;;;5000397;28;19920;-24
2022/08/03 07:48:50;;;;;;;;;;;;;;;;;;4999877;28;19910;-24
2022/08/03 07:51:28;;;;;;;;;;;;;;;;;;4999656;28;19913;-24
2022/08/03 07:54:02;;;;;;;;;;;;;;;;;;5002062;28;19924;-24
2022/08/03 07:56:45;;;;;;;;;;;;;;;;;;5001993;28;20005;-24
2022/08/03 07:59:13;;;;;;;;;;;;;;;;;;5002272;28;20252;-24
2022/08/03 08:01:57;;;;;;;;;;;;;;;;;;5000658;28;19914;-24
2022/08/03 08:04:24;;;;;;;;;;;;;;;;;;5001786;28;19914;-24
2022/08/03 08:06:52;;;;;;;;;;;;;;;;;;5000080;28;20431;-24
2022/08/03 08:09:22;;;;;;;;;;;;;;;;;;5000598;28;20305;-24
2022/08/03 08:11:57;;;;;;;;;;;;;;;;;;5000493;28;19917;-24
2022/08/03 08:14:23;;;;;;;;;;;;;;;;;;5001595;28;19964;-24
2022/08/03 08:17:00;;;;;;;;;;;;;;;;;;4998765;28;20222;-24
2022/08/03 08:19:30;;;;;;;;;;;;;;;;;;4999177;28;20012;-24
2022/08/03 08:21:59;;;;;;;;;;;;;;;;;;5001364;28;19938;-24
2022/08/03 08:24:29;;;;;;;;;;;;;;;;;;5000927;28;19914;-24
2022/08/03 08:26:56;;;;;;;;;;;;;;;;;;4998479;28;20008;-24
2022/08/03 08:32:16;;;;;;;;;;;;;;;;;;4998953;28;19980;-24
2022/08/03 08:34:45;;;;;;;;;;;;;;;;;;4999440;28;19914;-25
2022/08/03 08:37:13;;;;;;;;;;;;;;;;;;5001201;28;19914;-25
2022/08/03 08:39:41;;;;;;;;;;;;;;;;;;4999906;28;19974;-25
2022/08/03 08:42:11;;;;;;;;;;;;;;;;;;4998489;28;20309;-25
2022/08/03 08:44:38;;;;;;;;;;;;;;;;;;4999726;28;20478;-25
2022/08/03 08:47:06;;;;;;;;;;;;;;;;;;4998612;28;20269;-25
2022/08/03 08:49:37;;;;;;;;;;;;;;;;;;5000164;28;19992;-25
2022/08/03 08:52:12;;;;;;;;;;;;;;;;;;5000075;28;19910;-25
2022/08/03 08:54:39;;;;;;;;;;;;;;;;;;5000128;28;20356;-25
2022/08/03 08:57:20;;;;;;;;;;;;;;;;;;4998722;28;19914;-25
2022/08/03 08:59:56;;;;;;;;;;;;;;;;;;5000435;28;19921;-25
2022/08/03 09:02:28;;;;;;;;;;;;;;;;;;5000162;28;19918;-25
2022/08/03 09:04:56;;;;;;;;;;;;;;;;;;4998040;28;19914;-25
2022/08/03 09:07:25;;;;;;;;;;;;;;;;;;5000387;28;19921;-25
2022/08/03 09:10:11;;;;;;;;;;;;;;;;;;4999834;28;19975;-25
2022/08/03 09:12:39;;;;;;;;;;;;;;;;;;4998332;28;19925;-25
2022/08/03 09:15:24;;;;;;;;;;;;;;;;;;5000229;28;19913;-25
2022/08/03 09:26:17;;;;;;;;;;;;;;;;;;5019064;28;20294;-25
2022/08/03 09:28:49;;;;;;;;;;;;;;;;;;5018528;28;19940;-24
2022/08/03 09:31:20;;;;;;;;;;;;;;;;;;5018984;28;19913;-24
2022/08/03 09:33:48;;;;;;;;;;;;;;;;;;5019666;28;19914;-24
2022/08/03 09:39:09;;;;;;;;;;;;;;;;;;5019088;28;19952;-25
2022/08/03 09:41:38;;;;;;;;;;;;;;;;;;5001314;28;19921;-25
2022/08/03 09:44:12;;;;;;;;;;;;;;;;;;5018668;28;19921;-24
2022/08/03 09:46:41;;;;;;;;;;;;;;;;;;5001093;28;19921;-25
2022/08/03 09:49:23;;;;;;;;;;;;;;;;;;5018102;28;19913;-25
2022/08/03 09:51:52;;;;;;;;;;;;;;;;;;5001030;28;19925;-25
2022/08/03 10:05:45;;;;;;;;;;;;;;;;;;5017690;28;19924;-25
2022/08/03 10:08:31;;;;;;;;;;;;;;;;;;5000345;28;19914;-24
2022/08/03 10:10:59;;;;;;;;;;;;;;;;;;5001330;28;19913;-24
2022/08/03 10:13:37;;;;;;;;;;;;;;;;;;5000583;28;20004;-24
2022/08/03 10:16:11;;;;;;;;;;;;;;;;;;5001286;28;20260;-25
2022/08/03 10:18:41;;;;;;;;;;;;;;;;;;5017944;28;19924;-24
2022/08/03 10:21:12;;;;;;;;;;;;;;;;;;5017797;28;19913;-24
2022/08/03 10:26:36;;;;;;;;;;;;;;;;;;5016673;28;19925;-25
2022/08/03 10:34:52;;;;;;;;;;;;;;;;;;5019710;28;19997;-25
2022/08/03 10:40:11;;;;;;;;;;;;;;;;;;5019511;28;19940;-25
2022/08/03 10:42:44;;;;;;;;;;;;;;;;;;5017284;28;19940;-25
2022/08/03 10:45:12;;;;;;;;;;;;;;;;;;5017654;28;20095;-25
2022/08/03 10:47:42;;;;;;;;;;;;;;;;;;5017102;28;19917;-23
2022/08/03 10:58:35;;;;;;;;;;;;;;;;;;5021569;28;20414;-24
2022/08/03 11:03:45;;;;;;;;;;;;;;;;;;5220288;22;19925;-24
2022/08/03 11:06:13;;;;;;;;;;;;;;;;;;5004346;28;19924;-24
2022/08/03 11:08:42;;;;;;;;;;;;;;;;;;5005629;28;19921;-24
2022/08/03 11:11:11;;;;;;;;;;;;;;;;;;5002830;28;19919;-25
2022/08/03 11:13:40;;;;;;;;;;;;;;;;;;5020236;28;20244;-24
2022/08/03 11:16:07;;;;;;;;;;;;;;;;;;5021093;28;19922;-25
2022/08/03 11:18:35;;;;;;;;;;;;;;;;;;5020003;28;20288;-25
2022/08/03 11:21:02;;;;;;;;;;;;;;;;;;5002629;28;19913;-25
2022/08/03 11:23:29;;;;;;;;;;;;;;;;;;5020529;28;19909;-25
2022/08/03 11:25:57;;;;;;;;;;;;;;;;;;5020330;28;19920;-24
2022/08/03 11:28:24;;;;;;;;;;;;;;;;;;5020330;28;19988;-24
2022/08/03 11:30:52;;;;;;;;;;;;;;;;;;5020297;28;19976;-25
2022/08/03 11:33:28;;;;;;;;;;;;;;;;;;5003456;28;19936;-25
2022/08/03 11:36:02;;;;;;;;;;;;;;;;;;5003479;28;19924;-25
2022/08/03 11:38:35;;;;;;;;;;;;;;;;;;5020912;28;19971;-24
2022/08/03 11:41:13;;;;;;;;;;;;;;;;;;5020433;28;19909;-25
2022/08/03 11:43:47;;;;;;;;;;;;;;;;;;5021108;28;19925;-24
2022/08/03 11:46:19;;;;;;;;;;;;;;;;;;5019631;28;19985;-24
2022/08/03 11:48:47;;;;;;;;;;;;;;;;;;5020375;28;19914;-25
2022/08/03 11:51:14;;;;;;;;;;;;;;;;;;5002581;28;19913;-24
2022/08/03 11:53:43;;;;;;;;;;;;;;;;;;5019801;28;20234;-25
2022/08/03 11:56:12;;;;;;;;;;;;;;;;;;5002708;28;19960;-24
2022/08/03 11:58:40;;;;;;;;;;;;;;;;;;5020376;28;20280;-24
2022/08/03 12:01:07;;;;;;;;;;;;;;;;;;5019569;28;19992;-25
2022/08/03 12:03:38;;;;;;;;;;;;;;;;;;5002454;28;19921;-25
2022/08/03 12:06:07;;;;;;;;;;;;;;;;;;5018729;28;19985;-25
2022/08/03 12:08:34;;;;;;;;;;;;;;;;;;5002723;28;19936;-25
2022/08/03 12:11:03;;;;;;;;;;;;;;;;;;5019975;28;19941;-25
2022/08/03 12:13:32;;;;;;;;;;;;;;;;;;5019958;28;19936;-25
2022/08/03 12:16:00;;;;;;;;;;;;;;;;;;5002796;28;20344;-25
2022/08/03 12:18:34;;;;;;;;;;;;;;;;;;5020080;28;19919;-24
2022/08/03 12:21:01;;;;;;;;;;;;;;;;;;5019442;28;19913;-25
2022/08/03 12:23:29;;;;;;;;;;;;;;;;;;5019394;28;20307;-24
2022/08/03 12:25:56;;;;;;;;;;;;;;;;;;5002300;28;20325;-25
2022/08/03 12:28:27;;;;;;;;;;;;;;;;;;5019637;28;19913;-25
2022/08/03 12:30:55;;;;;;;;;;;;;;;;;;5019891;28;20000;-25
2022/08/03 12:33:27;;;;;;;;;;;;;;;;;;5019128;28;19913;-25
2022/08/03 12:35:55;;;;;;;;;;;;;;;;;;5018917;28;19913;-25
2022/08/03 12:38:31;;;;;;;;;;;;;;;;;;5019633;28;19933;-24
2022/08/03 12:40:59;;;;;;;;;;;;;;;;;;5019240;28;19956;-25
2022/08/03 12:43:27;;;;;;;;;;;;;;;;;;5019318;28;20395;-23
2022/08/03 12:45:58;;;;;;;;;;;;;;;;;;5020375;28;19976;-24
2022/08/03 12:48:29;;;;;;;;;;;;;;;;;;5002792;28;20349;-24
2022/08/03 12:51:07;;;;;;;;;;;;;;;;;;;;;
2022/08/03 12:53:55;;;;;;;;;;;;;;;;;;4976481;28;20262;-24
2022/08/03 12:56:24;;;;;;;;;;;;;;;;;;4979900;28;19914;-23
2022/08/03 12:58:52;;;;;;;;;;;;;;;;;;4969885;28;20995;-24
2022/08/03 13:01:23;;;;;;;;;;;;;;;;;;5001966;28;19971;-24
2022/08/03 13:03:50;;;;;;;;;;;;;;;;;;5018517;28;19921;-23
2022/08/03 13:06:18;;;;;;;;;;;;;;;;;;5019145;28;19979;-24
2022/08/03 13:08:47;;;;;;;;;;;;;;;;;;5019450;28;20004;-25
2022/08/03 13:11:15;;;;;;;;;;;;;;;;;;5019389;28;19936;-24
2022/08/03 13:13:43;;;;;;;;;;;;;;;;;;5018319;28;19929;-24
2022/08/03 13:16:20;;;;;;;;;;;;;;;;;;5000930;28;19909;-24
2022/08/03 13:18:50;;;;;;;;;;;;;;;;;;4999782;28;20012;-24
2022/08/03 13:21:18;;;;;;;;;;;;;;;;;;5018333;28;19921;-24
2022/08/03 13:23:52;;;;;;;;;;;;;;;;;;5018496;28;19917;-24
2022/08/03 13:26:22;;;;;;;;;;;;;;;;;;4999439;28;20363;-24
2022/08/03 13:28:50;;;;;;;;;;;;;;;;;;5000505;28;19914;-24
2022/08/03 13:31:18;;;;;;;;;;;;;;;;;;5018173;28;19917;-24
2022/08/03 13:33:56;;;;;;;;;;;;;;;;;;5001452;28;19980;-24
2022/08/03 13:39:44;;;;;;;;;;;;;;;;;;5113718;27;19942;-33
2022/08/03 13:42:14;;;;;;;;;;;;;;;;;;5111463;28;19912;-28
2022/08/03 13:44:41;;;;;;;;;;;;;;;;;;5093467;28;19913;-27
2022/08/03 13:47:09;;;;;;;;;;;;;;;;;;5093700;28;19962;-26
2022/08/03 13:49:37;;;;;;;;;;;;;;;;;;5094648;28;19913;-25
2022/08/03 13:52:05;;;;;;;;;;;;;;;;;;5094154;28;19916;-27
2022/08/03 13:54:32;;;;;;;;;;;;;;;;;;5094576;28;19919;-27
2022/08/03 13:57:03;;;;;;;;;;;;;;;;;;5093093;28;19920;-24
2022/08/03 13:59:31;;;;;;;;;;;;;;;;;;5093115;28;19919;-27
2022/08/03 14:02:00;;;;;;;;;;;;;;;;;;5094345;28;19909;-30
2022/08/03 14:04:27;;;;;;;;;;;;;;;;;;5094267;28;19912;-29
2022/08/03 14:06:55;;;;;;;;;;;;;;;;;;5093808;28;20313;-23
2022/08/03 14:12:14;;;;;;;;;;;;;;;;;;5095050;28;20015;-25
2022/08/03 14:14:43;;;;;;;;;;;;;;;;;;5094341;28;19934;-26
2022/08/03 14:17:11;;;;;;;;;;;;;;;;;;5093907;28;19924;-30
2022/08/03 14:19:39;;;;;;;;;;;;;;;;;;5094060;28;19987;-27
2022/08/03 14:22:08;;;;;;;;;;;;;;;;;;5094712;28;19919;-33
2022/08/03 14:24:35;;;;;;;;;;;;;;;;;;5094350;28;19912;-26
2022/08/03 14:27:06;;;;;;;;;;;;;;;;;;5093711;28;19923;-32
2022/08/03 14:29:37;;;;;;;;;;;;;;;;;;5095057;28;19993;-34
2022/08/03 14:32:07;;;;;;;;;;;;;;;;;;5094974;28;19916;-27
2022/08/03 14:34:35;;;;;;;;;;;;;;;;;;5094370;28;19916;-25
2022/08/03 14:37:03;;;;;;;;;;;;;;;;;;5092845;28;19948;-28
2022/08/03 14:39:29;;;;;;;;;;;;;;;;;;5096680;28;19916;-26
2022/08/03 14:41:59;;;;;;;;;;;;;;;;;;5113973;28;19964;-32
2022/08/03 14:44:26;;;;;;;;;;;;;;;;;;5113677;28;19919;-28
2022/08/03 14:46:54;;;;;;;;;;;;;;;;;;5113428;28;19915;-28
2022/08/03 14:49:20;;;;;;;;;;;;;;;;;;5107885;28;19956;-28
2022/08/03 14:51:48;;;;;;;;;;;;;;;;;;5081607;28;19998;-25
2022/08/03 14:54:14;;;;;;;;;;;;;;;;;;5082164;28;19930;-29
2022/08/03 14:56:41;;;;;;;;;;;;;;;;;;5081546;28;19912;-25
2022/08/03 14:59:08;;;;;;;;;;;;;;;;;;5099672;28;19923;-29
2022/08/03 15:01:36;;;;;;;;;;;;;;;;;;5099845;28;19912;-30
2022/08/03 15:04:04;;;;;;;;;;;;;;;;;;5100152;28;20258;-28
2022/08/03 15:06:32;;;;;;;;;;;;;;;;;;5099874;28;19912;-26
2022/08/03 15:09:00;;;;;;;;;;;;;;;;;;5099445;28;19922;-29
2022/08/03 15:11:28;;;;;;;;;;;;;;;;;;5099848;28;20256;-28
2022/08/03 15:14:00;;;;;;;;;;;;;;;;;;5099826;28;19961;-31
2022/08/03 15:16:28;;;;;;;;;;;;;;;;;;5082221;28;19908;-29
2022/08/03 15:18:59;;;;;;;;;;;;;;;;;;5098950;28;19916;-29
2022/08/03 15:21:28;;;;;;;;;;;;;;;;;;5099540;28;19908;-31
2022/08/03 15:23:58;;;;;;;;;;;;;;;;;;5097117;28;19912;-30
2022/08/03 15:29:12;;;;;;;;;;;;;;;;;;5099157;28;19962;-27
2022/08/03 15:31:39;;;;;;;;;;;;;;;;;;5098965;28;20262;-27
2022/08/03 15:34:07;;;;;;;;;;;;;;;;;;5098621;28;20007;-28
2022/08/03 15:36:35;;;;;;;;;;;;;;;;;;5098306;28;19982;-28
2022/08/03 15:39:02;;;;;;;;;;;;;;;;;;5098769;28;19920;-24
2022/08/03 15:41:29;;;;;;;;;;;;;;;;;;5098791;28;19955;-30
2022/08/03 15:43:56;;;;;;;;;;;;;;;;;;5098667;28;19918;-27
2022/08/03 15:46:24;;;;;;;;;;;;;;;;;;5098929;28;20362;-27
2022/08/03 15:48:53;;;;;;;;;;;;;;;;;;5098917;28;19940;-29
2022/08/03 15:51:21;;;;;;;;;;;;;;;;;;5098876;28;20362;-28
2022/08/03 15:53:48;;;;;;;;;;;;;;;;;;5081079;28;19916;-29
2022/08/03 15:56:15;;;;;;;;;;;;;;;;;;5098828;28;19919;-27
2022/08/03 15:58:43;;;;;;;;;;;;;;;;;;5098337;28;19938;-26
2022/08/03 16:01:11;;;;;;;;;;;;;;;;;;5097477;28;20235;-27
2022/08/03 16:03:38;;;;;;;;;;;;;;;;;;5098436;28;19975;-31
2022/08/03 16:06:07;;;;;;;;;;;;;;;;;;5098798;28;19909;-24
2022/08/03 16:08:35;;;;;;;;;;;;;;;;;;5098141;28;20240;-24
2022/08/03 16:11:02;;;;;;;;;;;;;;;;;;5098607;28;19919;-29
2022/08/03 16:13:29;;;;;;;;;;;;;;;;;;5097644;28;19912;-28
2022/08/03 16:15:58;;;;;;;;;;;;;;;;;;5080292;28;19912;-31
2022/08/03 16:18:29;;;;;;;;;;;;;;;;;;5098097;28;19919;-26
2022/08/03 16:20:57;;;;;;;;;;;;;;;;;;5097742;28;19912;-27
2022/08/03 16:23:24;;;;;;;;;;;;;;;;;;5079413;28;20003;-31
2022/08/03 16:25:53;;;;;;;;;;;;;;;;;;5097938;28;19908;-30
2022/08/03 16:28:21;;;;;;;;;;;;;;;;;;5097988;28;19935;-27
2022/08/03 16:30:49;;;;;;;;;;;;;;;;;;5097680;28;19959;-31
2022/08/03 16:33:16;;;;;;;;;;;;;;;;;;5097621;28;19923;-28
2022/08/03 16:35:44;;;;;;;;;;;;;;;;;;5079670;28;19908;-28
2022/08/03 16:38:11;;;;;;;;;;;;;;;;;;5097522;28;20395;-25
2022/08/03 16:40:39;;;;;;;;;;;;;;;;;;5097828;28;20406;-28
2022/08/03 16:43:07;;;;;;;;;;;;;;;;;;5097815;28;20354;-30
2022/08/03 16:45:35;;;;;;;;;;;;;;;;;;5098359;28;20023;-28
2022/08/03 16:48:02;;;;;;;;;;;;;;;;;;5097989;28;20380;-25
2022/08/03 16:50:30;;;;;;;;;;;;;;;;;;5079808;28;19918;-27
2022/08/03 16:52:57;;;;;;;;;;;;;;;;;;5097784;28;19912;-28
2022/08/03 16:55:25;;;;;;;;;;;;;;;;;;5098285;28;19912;-29
2022/08/03 16:57:52;;;;;;;;;;;;;;;;;;5079685;28;19916;-30
2022/08/03 17:00:19;;;;;;;;;;;;;;;;;;5079874;28;19958;-22
2022/08/03 17:02:46;;;;;;;;;;;;;;;;;;5096754;28;19912;-27
2022/08/03 17:05:13;;;;;;;;;;;;;;;;;;5096802;28;19972;-24
2022/08/03 17:07:39;;;;;;;;;;;;;;;;;;5097334;28;19912;-24
2022/08/03 17:10:07;;;;;;;;;;;;;;;;;;5079285;28;20035;-30
2022/08/03 17:12:35;;;;;;;;;;;;;;;;;;5096517;28;19912;-27
2022/08/03 17:15:02;;;;;;;;;;;;;;;;;;5079035;28;19908;-28
2022/08/03 17:17:29;;;;;;;;;;;;;;;;;;5097046;28;20019;-29
2022/08/03 17:19:55;;;;;;;;;;;;;;;;;;5096506;28;19948;-26
2022/08/03 17:22:22;;;;;;;;;;;;;;;;;;5097463;28;20316;-31
2022/08/03 17:24:49;;;;;;;;;;;;;;;;;;5097094;28;19924;-30
2022/08/03 17:27:16;;;;;;;;;;;;;;;;;;5078779;28;19923;-28
2022/08/03 17:35:26;;;;;;;;;;;;;;;;;;5097883;28;20011;-30
2022/08/03 17:37:53;;;;;;;;;;;;;;;;;;5096678;28;20275;-27
2022/08/03 17:40:20;;;;;;;;;;;;;;;;;;5096428;28;20343;-33
2022/08/03 17:42:48;;;;;;;;;;;;;;;;;;5096368;28;19923;-29
2022/08/03 17:45:15;;;;;;;;;;;;;;;;;;5096346;28;19943;-25
2022/08/03 17:47:45;;;;;;;;;;;;;;;;;;5096716;28;20344;-24
2022/08/03 18:07:17;;;;;;;;;;;;;;;;;;5093902;28;19974;-31
2022/08/03 18:15:21;;;;;;;;;;;;;;;;;;5098686;28;19923;-32
2022/08/03 18:17:50;;;;;;;;;;;;;;;;;;5082977;28;19916;-32
2022/08/03 18:20:17;;;;;;;;;;;;;;;;;;5099935;28;19912;-34
2022/08/03 18:22:44;;;;;;;;;;;;;;;;;;5099985;28;19916;-28
2022/08/03 18:25:12;;;;;;;;;;;;;;;;;;5082681;28;19912;-24
2022/08/03 18:27:39;;;;;;;;;;;;;;;;;;5081333;28;20297;-30
2022/08/03 18:30:06;;;;;;;;;;;;;;;;;;5100974;28;20388;-27
2022/08/03 18:32:33;;;;;;;;;;;;;;;;;;5099853;28;19923;-27
2022/08/03 18:35:01;;;;;;;;;;;;;;;;;;5099487;28;19908;-31
2022/08/03 18:37:29;;;;;;;;;;;;;;;;;;5073813;28;19978;-24
2022/08/03 18:39:57;;;;;;;;;;;;;;;;;;5059269;28;19935;-27
2022/08/03 18:42:24;;;;;;;;;;;;;;;;;;5062025;28;20250;-26